createdAt,value
2017-02-13T00:00:13.594Z,4.3
2017-02-13T00:01:27.373Z,4.32
2017-02-13T00:02:41.143Z,4.35
2017-02-13T00:03:55.460Z,4.32
2017-02-13T00:05:09.367Z,4.24
2017-02-13T00:06:23.103Z,4.16
2017-02-13T00:07:37.167Z,4.08
2017-02-13T00:08:51.498Z,4.04
2017-02-13T00:10:05.475Z,4.02
2017-02-13T00:11:21.847Z,4
2017-02-13T00:12:35.947Z,3.98
2017-02-13T00:13:50.152Z,3.97
2017-02-13T00:15:03.745Z,3.95
2017-02-13T00:16:17.979Z,3.95
2017-02-13T00:17:31.915Z,3.97
2017-02-13T00:18:45.985Z,3.96
2017-02-13T00:19:59.505Z,3.96
2017-02-13T00:21:14.107Z,3.94
2017-02-13T00:22:28.699Z,3.96
2017-02-13T00:23:42.562Z,3.97
2017-02-13T00:24:56.923Z,4.01
2017-02-13T00:26:10.633Z,4.01
2017-02-13T00:27:24.533Z,4.01
2017-02-13T00:28:38.615Z,4.02
2017-02-13T00:29:52.553Z,4
2017-02-13T00:31:06.453Z,4
2017-02-13T00:32:20.386Z,3.98
2017-02-13T00:33:34.745Z,3.98
2017-02-13T00:34:48.649Z,3.95
2017-02-13T00:36:02.462Z,3.95
2017-02-13T00:37:18.270Z,3.95
2017-02-13T00:38:35.958Z,3.98
2017-02-13T00:39:52.248Z,4.01
2017-02-13T00:41:09.522Z,4.03
2017-02-13T00:42:27.077Z,4.06
2017-02-13T00:43:42.935Z,4.08
2017-02-13T00:44:56.573Z,4.11
2017-02-13T00:46:10.657Z,4.08
2017-02-13T00:47:24.481Z,4.09
2017-02-13T00:48:39.091Z,4.08
2017-02-13T00:49:52.687Z,4.05
2017-02-13T00:51:07.239Z,4.05
2017-02-13T00:52:20.815Z,4.04
2017-02-13T00:53:34.847Z,4.07
2017-02-13T00:54:49.060Z,4.09
2017-02-13T00:56:02.796Z,4.12
2017-02-13T00:57:16.734Z,4.15
2017-02-13T00:58:30.604Z,4.17
2017-02-13T01:02:41.907Z,4.25
2017-02-13T01:03:57.010Z,4.26
2017-02-13T01:05:11.261Z,4.27
2017-02-13T01:06:24.845Z,4.24
2017-02-13T01:07:38.795Z,4.19
2017-02-13T01:08:52.603Z,4.18
2017-02-13T01:10:06.265Z,4.16
2017-02-13T01:11:20.520Z,4.16
2017-02-13T01:12:34.238Z,4.17
2017-02-13T01:13:47.947Z,4.2
2017-02-13T01:15:01.690Z,4.22
2017-02-13T01:16:15.648Z,4.21
2017-02-13T01:17:30.182Z,4.23
2017-02-13T01:18:43.668Z,4.25
2017-02-13T01:19:57.417Z,4.26
2017-02-13T01:21:11.389Z,4.23
2017-02-13T01:22:25.273Z,4.18
2017-02-13T01:23:39.407Z,4.09
2017-02-13T01:24:53.376Z,4.03
2017-02-13T01:26:07.415Z,4.02
2017-02-13T01:27:21.091Z,4.04
2017-02-13T01:28:34.980Z,4.07
2017-02-13T01:29:51.216Z,4.09
2017-02-13T01:31:05.106Z,4.09
2017-02-13T01:32:19.019Z,4.03
2017-02-13T01:33:32.693Z,4.01
2017-02-13T01:34:46.530Z,3.95
2017-02-13T01:36:00.227Z,3.94
2017-02-13T01:37:14.148Z,3.93
2017-02-13T01:38:30.673Z,3.93
2017-02-13T01:39:44.526Z,3.95
2017-02-13T01:40:58.201Z,3.96
2017-02-13T01:42:11.978Z,3.97
2017-02-13T01:43:25.735Z,3.96
2017-02-13T01:44:39.786Z,3.96
2017-02-13T01:45:53.559Z,3.96
2017-02-13T01:47:07.529Z,3.99
2017-02-13T01:48:21.971Z,4.02
2017-02-13T01:49:35.504Z,4.07
2017-02-13T01:50:49.365Z,4.11
2017-02-13T01:52:03.167Z,4.15
2017-02-13T01:53:17.565Z,4.17
2017-02-13T01:54:31.659Z,4.17
2017-02-13T01:55:45.434Z,4.15
2017-02-13T01:56:59.415Z,4.14
2017-02-13T01:58:13.479Z,4.15
2017-02-13T01:59:27.277Z,4.12
2017-02-13T02:00:41.455Z,4.1
2017-02-13T02:01:54.915Z,4.1
2017-02-13T02:03:08.977Z,4.08
2017-02-13T02:04:23.083Z,4.04
2017-02-13T02:05:36.956Z,4
2017-02-13T02:06:50.912Z,3.97
2017-02-13T02:08:04.684Z,3.98
2017-02-13T02:09:18.204Z,3.99
2017-02-13T02:10:32.165Z,4.02
2017-02-13T02:11:46.006Z,4.05
2017-02-13T02:13:00.391Z,4.07
2017-02-13T02:14:13.836Z,4.04
2017-02-13T02:15:27.580Z,4.02
2017-02-13T02:16:41.403Z,4
2017-02-13T02:18:09.957Z,4.02
2017-02-13T02:19:23.989Z,4.04
2017-02-13T02:20:37.821Z,4.01
2017-02-13T02:21:51.510Z,3.98
2017-02-13T02:23:10.514Z,3.95
2017-02-13T02:24:33.766Z,3.95
2017-02-13T02:25:56.734Z,3.97
2017-02-13T02:27:18.875Z,3.97
2017-02-13T02:28:41.394Z,3.96
2017-02-13T02:30:02.332Z,4
2017-02-13T02:31:24.808Z,4.02
2017-02-13T02:32:47.778Z,4.01
2017-02-13T02:34:08.912Z,3.98
2017-02-13T02:35:30.207Z,3.95
2017-02-13T02:36:58.457Z,3.98
2017-02-13T02:38:17.265Z,3.99
2017-02-13T02:39:34.070Z,3.95
2017-02-13T02:40:47.751Z,3.92
2017-02-13T02:42:01.552Z,3.94
2017-02-13T02:43:15.861Z,3.92
2017-02-13T02:44:29.750Z,3.9
2017-02-13T02:45:43.770Z,3.88
2017-02-13T02:46:57.767Z,3.88
2017-02-13T02:48:13.754Z,3.89
2017-02-13T02:49:27.569Z,3.9
2017-02-13T02:50:41.328Z,3.92
2017-02-13T02:51:55.600Z,3.94
2017-02-13T02:53:09.206Z,3.96
2017-02-13T02:54:23.274Z,3.98
2017-02-13T02:55:37.398Z,3.98
2017-02-13T02:56:51.045Z,3.98
2017-02-13T02:58:05.502Z,3.97
2017-02-13T02:59:35.060Z,3.99
2017-02-13T03:00:48.855Z,4.01
2017-02-13T03:02:02.573Z,4
2017-02-13T03:03:16.401Z,3.96
2017-02-13T03:04:44.889Z,3.92
2017-02-13T03:05:59.316Z,3.89
2017-02-13T03:07:13.276Z,3.89
2017-02-13T03:08:27.096Z,3.91
2017-02-13T03:09:40.806Z,3.94
2017-02-13T03:10:54.713Z,3.94
2017-02-13T03:12:08.938Z,3.92
2017-02-13T03:13:23.370Z,3.89
2017-02-13T03:14:36.934Z,3.86
2017-02-13T03:15:50.820Z,3.82
2017-02-13T03:17:04.395Z,3.81
2017-02-13T03:18:18.634Z,3.8
2017-02-13T03:19:32.450Z,3.78
2017-02-13T03:20:46.118Z,3.73
2017-02-13T03:21:59.640Z,3.68
2017-02-13T03:23:13.315Z,3.66
2017-02-13T03:24:27.691Z,3.65
2017-02-13T03:25:41.557Z,3.66
2017-02-13T03:26:55.085Z,3.69
2017-02-13T03:28:09.201Z,3.71
2017-02-13T03:29:22.755Z,3.73
2017-02-13T03:30:36.919Z,3.77
2017-02-13T03:31:50.484Z,3.81
2017-02-13T03:33:04.300Z,3.83
2017-02-13T03:34:17.969Z,3.85
2017-02-13T03:35:32.118Z,3.86
2017-02-13T03:36:46.156Z,3.89
2017-02-13T03:37:59.774Z,3.93
2017-02-13T03:39:13.314Z,3.94
2017-02-13T03:40:27.282Z,3.92
2017-02-13T03:41:41.068Z,3.91
2017-02-13T03:42:55.151Z,3.9
2017-02-13T03:44:09.048Z,3.91
2017-02-13T03:45:23.401Z,3.89
2017-02-13T03:46:37.261Z,3.83
2017-02-13T03:47:51.074Z,3.77
2017-02-13T03:49:05.272Z,3.71
2017-02-13T03:50:19.211Z,3.65
2017-02-13T03:51:32.829Z,3.65
2017-02-13T03:52:46.764Z,3.66
2017-02-13T03:54:00.396Z,3.67
2017-02-13T03:55:14.288Z,3.72
2017-02-13T03:56:27.744Z,3.74
2017-02-13T03:57:41.704Z,3.74
2017-02-13T03:58:55.402Z,3.72
2017-02-13T04:00:09.314Z,3.7
2017-02-13T04:01:23.062Z,3.69
2017-02-13T04:02:37.160Z,3.69
2017-02-13T04:03:50.955Z,3.67
2017-02-13T04:05:07.228Z,3.66
2017-02-13T04:06:36.028Z,3.63
2017-02-13T04:07:49.545Z,3.64
2017-02-13T04:09:03.548Z,3.65
2017-02-13T04:10:17.305Z,3.67
2017-02-13T04:11:31.207Z,3.69
2017-02-13T04:12:44.663Z,3.7
2017-02-13T04:13:58.756Z,3.73
2017-02-13T04:15:12.196Z,3.76
2017-02-13T04:16:26.165Z,3.77
2017-02-13T04:17:39.708Z,3.77
2017-02-13T04:18:53.360Z,3.74
2017-02-13T04:20:07.202Z,3.75
2017-02-13T04:21:21.054Z,3.74
2017-02-13T04:22:34.824Z,3.73
2017-02-13T04:23:48.480Z,3.7
2017-02-13T04:25:02.225Z,3.68
2017-02-13T04:26:16.849Z,3.7
2017-02-13T04:27:30.386Z,3.7
2017-02-13T04:28:44.340Z,3.73
2017-02-13T04:29:58.304Z,3.75
2017-02-13T04:31:12.211Z,3.75
2017-02-13T04:32:26.254Z,3.72
2017-02-13T04:33:40.063Z,3.68
2017-02-13T04:34:53.966Z,3.66
2017-02-13T04:36:07.741Z,3.68
2017-02-13T04:37:21.771Z,3.66
2017-02-13T04:38:35.880Z,3.63
2017-02-13T04:39:50.040Z,3.57
2017-02-13T04:41:04.369Z,3.53
2017-02-13T04:42:18.915Z,3.52
2017-02-13T04:43:32.848Z,3.52
2017-02-13T04:44:46.993Z,3.5
2017-02-13T04:46:00.796Z,3.52
2017-02-13T04:47:14.241Z,3.55
2017-02-13T04:48:28.300Z,3.58
2017-02-13T04:49:42.174Z,3.56
2017-02-13T04:50:56.493Z,3.57
2017-02-13T04:52:10.243Z,3.56
2017-02-13T04:53:23.931Z,3.58
2017-02-13T04:54:37.840Z,3.62
2017-02-13T04:55:51.761Z,3.66
2017-02-13T04:57:05.706Z,3.69
2017-02-13T04:58:19.876Z,3.71
2017-02-13T04:59:33.628Z,3.75
2017-02-13T05:00:47.962Z,3.73
2017-02-13T05:02:01.696Z,3.73
2017-02-13T05:03:16.507Z,3.71
2017-02-13T05:04:30.708Z,3.72
2017-02-13T05:05:44.487Z,3.73
2017-02-13T05:06:58.260Z,3.72
2017-02-13T05:08:12.054Z,3.74
2017-02-13T05:09:26.070Z,3.77
2017-02-13T05:10:39.934Z,3.82
2017-02-13T05:11:53.654Z,3.86
2017-02-13T05:13:07.732Z,3.89
2017-02-13T05:14:21.629Z,3.91
2017-02-13T05:15:36.009Z,3.93
2017-02-13T05:16:49.541Z,3.99
2017-02-13T05:18:03.243Z,4.05
2017-02-13T05:19:16.984Z,4.08
2017-02-13T05:20:30.771Z,4.09
2017-02-13T05:21:47.296Z,4.13
2017-02-13T05:23:01.111Z,4.17
2017-02-13T05:24:14.884Z,4.21
2017-02-13T05:25:28.757Z,4.25
2017-02-13T05:26:42.949Z,4.26
2017-02-13T05:27:56.768Z,4.29
2017-02-13T05:29:10.541Z,4.34
2017-02-13T05:30:23.997Z,4.4
2017-02-13T05:31:37.930Z,4.45
2017-02-13T05:32:51.860Z,4.5
2017-02-13T05:34:05.871Z,4.5
2017-02-13T05:35:19.646Z,4.59
2017-02-13T05:36:33.340Z,4.72
2017-02-13T05:37:47.549Z,4.76
2017-02-13T05:39:01.252Z,4.85
2017-02-13T05:40:15.123Z,4.93
2017-02-13T05:41:29.406Z,4.99
2017-02-13T05:42:43.025Z,4.94
2017-02-13T05:43:56.993Z,4.88
2017-02-13T05:45:10.560Z,4.79
2017-02-13T05:46:25.066Z,4.72
2017-02-13T05:47:38.782Z,4.68
2017-02-13T05:48:52.560Z,4.64
2017-02-13T05:50:06.671Z,4.58
2017-02-13T05:51:20.369Z,4.54
2017-02-13T05:52:34.541Z,4.55
2017-02-13T05:53:48.399Z,4.57
2017-02-13T05:55:02.571Z,4.56
2017-02-13T05:56:28.724Z,4.56
2017-02-13T05:57:42.523Z,4.55
2017-02-13T05:58:56.610Z,4.51
2017-02-13T06:01:52.875Z,4.45
2017-02-13T06:03:06.659Z,4.44
2017-02-13T06:04:20.837Z,4.39
2017-02-13T06:05:34.352Z,4.31
2017-02-13T06:06:48.990Z,4.29
2017-02-13T06:08:02.499Z,4.29
2017-02-13T06:09:16.371Z,4.32
2017-02-13T06:10:30.047Z,4.32
2017-02-13T06:11:44.532Z,4.31
2017-02-13T06:12:58.959Z,4.31
2017-02-13T06:14:12.816Z,4.32
2017-02-13T06:15:26.787Z,4.31
2017-02-13T06:16:40.584Z,4.3
2017-02-13T06:17:54.916Z,4.29
2017-02-13T06:19:09.021Z,4.24
2017-02-13T06:20:24.072Z,4.21
2017-02-13T06:21:37.769Z,4.2
2017-02-13T06:22:51.360Z,4.2
2017-02-13T06:24:05.794Z,4.2
2017-02-13T06:25:19.780Z,4.24
2017-02-13T06:26:34.402Z,4.28
2017-02-13T06:27:47.980Z,4.32
2017-02-13T06:29:01.632Z,4.36
2017-02-13T06:30:15.258Z,4.41
2017-02-13T06:31:29.518Z,4.42
2017-02-13T06:32:43.558Z,4.43
2017-02-13T06:33:57.530Z,4.45
2017-02-13T06:35:11.553Z,4.46
2017-02-13T06:36:25.337Z,4.47
2017-02-13T06:37:39.540Z,4.5
2017-02-13T06:38:55.554Z,4.51
2017-02-13T06:40:09.821Z,4.56
2017-02-13T06:41:24.332Z,4.57
2017-02-13T06:42:38.013Z,4.6
2017-02-13T06:43:52.022Z,4.62
2017-02-13T06:45:06.161Z,4.65
2017-02-13T06:46:20.071Z,4.67
2017-02-13T06:47:33.608Z,4.65
2017-02-13T06:48:48.038Z,4.63
2017-02-13T06:50:17.160Z,4.64
2017-02-13T06:51:31.084Z,4.66
2017-02-13T06:52:44.594Z,4.67
2017-02-13T06:53:58.707Z,4.71
2017-02-13T06:55:12.743Z,4.74
2017-02-13T06:56:26.925Z,4.76
2017-02-13T06:57:40.504Z,4.8
2017-02-13T06:58:54.834Z,4.85
2017-02-13T07:00:08.494Z,4.87
2017-02-13T07:01:22.705Z,4.83
2017-02-13T07:02:36.197Z,4.8
2017-02-13T07:03:49.798Z,4.8
2017-02-13T07:05:03.526Z,4.81
2017-02-13T07:06:17.746Z,4.8
2017-02-13T07:07:31.728Z,4.82
2017-02-13T07:08:45.427Z,4.83
2017-02-13T07:09:59.070Z,4.83
2017-02-13T07:11:12.752Z,4.83
2017-02-13T07:12:26.711Z,4.84
2017-02-13T07:13:41.208Z,4.82
2017-02-13T07:14:54.995Z,4.82
2017-02-13T07:16:09.045Z,4.78
2017-02-13T07:17:22.692Z,4.75
2017-02-13T07:18:36.768Z,4.75
2017-02-13T07:19:50.602Z,4.73
2017-02-13T07:21:04.520Z,4.72
2017-02-13T07:22:18.345Z,4.73
2017-02-13T07:23:32.567Z,4.73
2017-02-13T07:24:46.457Z,4.7
2017-02-13T07:26:00.551Z,4.67
2017-02-13T07:27:14.303Z,4.64
2017-02-13T07:28:28.355Z,4.63
2017-02-13T07:29:41.859Z,4.66
2017-02-13T07:30:56.258Z,4.68
2017-02-13T07:32:10.278Z,4.72
2017-02-13T07:33:24.320Z,4.73
2017-02-13T07:34:37.831Z,4.76
2017-02-13T07:35:51.781Z,4.76
2017-02-13T07:37:05.447Z,4.74
2017-02-13T07:38:19.751Z,4.75
2017-02-13T07:39:34.365Z,4.74
2017-02-13T07:40:48.039Z,4.72
2017-02-13T07:42:01.587Z,4.71
2017-02-13T07:43:15.321Z,4.74
2017-02-13T07:44:29.862Z,4.75
2017-02-13T07:45:43.550Z,4.75
2017-02-13T07:46:57.323Z,4.74
2017-02-13T07:48:11.169Z,4.73
2017-02-13T07:49:24.857Z,4.76
2017-02-13T07:50:39.098Z,4.8
2017-02-13T07:51:53.068Z,4.74
2017-02-13T07:53:06.824Z,4.74
2017-02-13T07:54:20.444Z,4.78
2017-02-13T07:55:36.431Z,4.77
2017-02-13T07:57:05.243Z,4.8
2017-02-13T07:58:18.768Z,4.83
2017-02-13T07:59:32.768Z,4.85
2017-02-13T08:00:46.557Z,4.9
2017-02-13T08:02:00.747Z,4.96
2017-02-13T08:03:14.639Z,5.04
2017-02-13T08:04:28.241Z,5.09
2017-02-13T08:05:42.161Z,5.16
2017-02-13T08:06:56.215Z,5.22
2017-02-13T08:08:10.963Z,5.26
2017-02-13T08:09:25.297Z,5.31
2017-02-13T08:10:39.034Z,5.35
2017-02-13T08:11:52.986Z,5.38
2017-02-13T08:13:06.681Z,5.41
2017-02-13T08:14:21.254Z,5.43
2017-02-13T08:15:35.369Z,5.48
2017-02-13T08:16:49.060Z,5.5
2017-02-13T08:18:02.685Z,5.55
2017-02-13T08:19:16.501Z,5.62
2017-02-13T08:20:30.252Z,5.67
2017-02-13T08:21:44.340Z,5.69
2017-02-13T08:22:58.024Z,5.68
2017-02-13T08:24:11.946Z,5.67
2017-02-13T08:25:25.917Z,5.65
2017-02-13T08:26:39.825Z,5.58
2017-02-13T08:27:53.971Z,5.46
2017-02-13T08:29:07.840Z,5.4
2017-02-13T08:30:21.322Z,5.33
2017-02-13T08:31:35.710Z,5.32
2017-02-13T08:32:49.547Z,5.3
2017-02-13T08:34:03.480Z,5.29
2017-02-13T08:35:17.342Z,5.3
2017-02-13T08:36:31.012Z,5.35
2017-02-13T08:37:44.808Z,5.42
2017-02-13T08:38:58.695Z,5.48
2017-02-13T08:40:12.701Z,5.56
2017-02-13T08:41:26.664Z,5.58
2017-02-13T08:42:40.233Z,5.62
2017-02-13T08:43:54.053Z,5.65
2017-02-13T08:45:07.986Z,5.67
2017-02-13T08:46:21.986Z,5.7
2017-02-13T08:47:35.736Z,5.75
2017-02-13T08:48:49.584Z,5.77
2017-02-13T08:50:03.583Z,5.78
2017-02-13T08:51:17.220Z,5.81
2017-02-13T08:52:30.964Z,5.85
2017-02-13T08:53:45.025Z,5.88
2017-02-13T08:54:58.625Z,5.94
2017-02-13T08:56:12.255Z,6.02
2017-02-13T08:57:25.730Z,6.11
2017-02-13T08:58:39.827Z,6.21
2017-02-13T08:59:53.759Z,6.27
2017-02-13T09:01:07.975Z,6.33
2017-02-13T09:02:21.995Z,6.37
2017-02-13T09:03:35.653Z,6.38
2017-02-13T09:04:49.765Z,6.37
2017-02-13T09:06:03.867Z,6.36
2017-02-13T09:07:17.732Z,6.36
2017-02-13T09:08:31.442Z,6.37
2017-02-13T09:09:45.018Z,6.35
2017-02-13T09:10:59.594Z,6.35
2017-02-13T09:12:15.765Z,6.36
2017-02-13T09:13:29.646Z,6.39
2017-02-13T09:14:43.615Z,6.38
2017-02-13T09:16:12.603Z,6.42
2017-02-13T09:17:41.613Z,6.46
2017-02-13T09:18:55.536Z,6.47
2017-02-13T09:20:09.455Z,6.5
2017-02-13T09:21:23.185Z,6.56
2017-02-13T09:22:37.248Z,6.6
2017-02-13T09:23:51.293Z,6.64
2017-02-13T09:25:05.686Z,6.71
2017-02-13T09:26:19.316Z,6.8
2017-02-13T09:27:33.197Z,6.78
2017-02-13T09:28:47.020Z,6.71
2017-02-13T09:30:01.751Z,6.62
2017-02-13T09:31:15.733Z,6.5
2017-02-13T09:32:30.432Z,6.39
2017-02-13T09:33:44.090Z,6.33
2017-02-13T09:34:58.215Z,6.32
2017-02-13T09:36:12.315Z,6.29
2017-02-13T09:37:26.286Z,6.29
2017-02-13T09:38:39.863Z,6.24
2017-02-13T09:39:53.732Z,6.17
2017-02-13T09:41:08.301Z,6.1
2017-02-13T09:42:22.551Z,6.07
2017-02-13T09:43:36.266Z,6.06
2017-02-13T09:44:50.126Z,6.07
2017-02-13T09:46:03.701Z,6.11
2017-02-13T09:47:17.798Z,6.12
2017-02-13T09:48:32.049Z,6.14
2017-02-13T09:49:46.165Z,6.26
2017-02-13T09:50:59.776Z,6.38
2017-02-13T09:52:13.461Z,6.45
2017-02-13T09:53:27.141Z,6.47
2017-02-13T09:54:41.527Z,6.53
2017-02-13T09:55:55.324Z,6.55
2017-02-13T09:57:09.425Z,6.59
2017-02-13T09:58:22.937Z,6.59
2017-02-13T09:59:36.694Z,6.61
2017-02-13T10:00:51.018Z,6.6
2017-02-13T10:02:04.632Z,6.6
2017-02-13T10:03:18.525Z,6.54
2017-02-13T10:04:32.541Z,6.53
2017-02-13T10:05:46.096Z,6.57
2017-02-13T10:07:00.624Z,6.57
2017-02-13T10:08:15.010Z,6.49
2017-02-13T10:09:28.646Z,6.42
2017-02-13T10:10:42.186Z,6.39
2017-02-13T10:11:56.032Z,6.35
2017-02-13T10:13:10.045Z,6.36
2017-02-13T10:14:23.786Z,6.36
2017-02-13T10:15:37.803Z,6.39
2017-02-13T10:16:52.143Z,6.43
2017-02-13T10:18:05.696Z,6.5
2017-02-13T10:19:35.328Z,6.57
2017-02-13T10:20:48.961Z,6.62
2017-02-13T10:22:02.791Z,6.64
2017-02-13T10:23:16.563Z,6.66
2017-02-13T10:24:30.469Z,6.67
2017-02-13T10:25:44.695Z,6.71
2017-02-13T10:26:58.814Z,6.75
2017-02-13T10:28:12.692Z,6.75
2017-02-13T10:29:28.609Z,6.81
2017-02-13T10:30:42.267Z,6.83
2017-02-13T10:31:57.138Z,6.87
2017-02-13T10:33:10.733Z,6.92
2017-02-13T10:34:24.689Z,6.96
2017-02-13T10:35:38.683Z,6.96
2017-02-13T10:36:52.341Z,6.89
2017-02-13T10:38:06.454Z,6.83
2017-02-13T10:39:20.773Z,6.82
2017-02-13T10:40:34.431Z,6.86
2017-02-13T10:41:48.166Z,6.88
2017-02-13T10:43:01.949Z,6.92
2017-02-13T10:44:16.037Z,6.94
2017-02-13T10:45:29.829Z,6.93
2017-02-13T10:46:43.917Z,6.9
2017-02-13T10:47:57.587Z,6.86
2017-02-13T10:49:11.502Z,6.87
2017-02-13T10:50:25.865Z,6.93
2017-02-13T10:51:39.937Z,6.99
2017-02-13T10:52:54.277Z,6.99
2017-02-13T10:54:08.728Z,7.03
2017-02-13T10:55:22.495Z,7.09
2017-02-13T10:56:36.649Z,7.17
2017-02-13T10:57:50.372Z,7.25
2017-02-13T10:59:04.193Z,7.27
2017-02-13T11:00:18.060Z,7.31
2017-02-13T11:01:31.967Z,7.38
2017-02-13T11:02:45.841Z,7.48
2017-02-13T11:03:59.520Z,7.54
2017-02-13T11:05:13.763Z,7.57
2017-02-13T11:06:27.616Z,7.64
2017-02-13T11:07:41.495Z,7.72
2017-02-13T11:08:55.442Z,7.8
2017-02-13T11:10:09.169Z,7.87
2017-02-13T11:11:23.122Z,7.94
2017-02-13T11:12:36.741Z,7.98
2017-02-13T11:13:50.779Z,8
2017-02-13T11:15:04.775Z,8.02
2017-02-13T11:16:18.918Z,8.07
2017-02-13T11:17:32.989Z,8.05
2017-02-13T11:18:48.320Z,8.06
2017-02-13T11:20:02.066Z,8.07
2017-02-13T11:21:40.441Z,8
2017-02-13T11:22:54.861Z,7.97
2017-02-13T11:24:08.563Z,8
2017-02-13T11:25:22.589Z,8.05
2017-02-13T11:26:36.624Z,8.12
2017-02-13T11:27:50.621Z,8.19
2017-02-13T11:29:04.361Z,8.22
2017-02-13T11:30:18.266Z,8.26
2017-02-13T11:31:32.103Z,8.28
2017-02-13T11:32:45.766Z,8.3
2017-02-13T11:33:59.755Z,8.32
2017-02-13T11:35:28.643Z,8.35
2017-02-13T11:36:42.553Z,8.35
2017-02-13T11:37:56.863Z,8.4
2017-02-13T11:39:11.055Z,8.43
2017-02-13T11:40:25.020Z,8.5
2017-02-13T11:41:38.872Z,8.55
2017-02-13T11:42:53.020Z,8.58
2017-02-13T11:44:07.449Z,8.59
2017-02-13T11:45:21.356Z,8.62
2017-02-13T11:46:37.302Z,8.64
2017-02-13T11:47:51.190Z,8.69
2017-02-13T11:49:04.962Z,8.73
2017-02-13T11:50:19.046Z,8.73
2017-02-13T11:51:33.767Z,8.72
2017-02-13T11:52:47.304Z,8.75
2017-02-13T11:54:01.685Z,8.79
2017-02-13T11:55:15.247Z,8.82
2017-02-13T11:56:39.055Z,8.8
2017-02-13T11:57:53.291Z,8.79
2017-02-13T11:59:07.099Z,8.76
2017-02-13T12:00:21.211Z,8.74
2017-02-13T12:01:35.205Z,8.74
2017-02-13T12:02:49.148Z,8.73
2017-02-13T12:04:03.532Z,8.75
2017-02-13T12:05:17.642Z,8.82
2017-02-13T12:06:31.310Z,8.9
2017-02-13T12:07:46.097Z,8.96
2017-02-13T12:08:59.589Z,9.01
2017-02-13T12:10:13.767Z,9.04
2017-02-13T12:11:28.016Z,9.07
2017-02-13T12:12:41.942Z,9.1
2017-02-13T12:13:56.322Z,9.12
2017-02-13T12:15:10.393Z,9.16
2017-02-13T12:16:24.609Z,9.18
2017-02-13T12:17:39.419Z,9.19
2017-02-13T12:18:53.862Z,9.21
2017-02-13T12:20:07.528Z,9.18
2017-02-13T12:21:36.117Z,9.11
2017-02-13T12:22:50.375Z,9.07
2017-02-13T12:24:04.169Z,9.03
2017-02-13T12:25:18.628Z,9.05
2017-02-13T12:26:32.478Z,9.09
2017-02-13T12:27:46.808Z,9.13
2017-02-13T12:29:00.817Z,9.16
2017-02-13T12:30:14.989Z,9.15
2017-02-13T12:31:50.171Z,9.23
2017-02-13T12:33:03.916Z,9.31
2017-02-13T12:34:18.078Z,9.38
2017-02-13T12:35:32.315Z,9.47
2017-02-13T12:36:46.160Z,9.52
2017-02-13T12:38:00.080Z,9.51
2017-02-13T12:39:13.957Z,9.53
2017-02-13T12:40:28.610Z,9.57
2017-02-13T12:41:42.821Z,9.61
2017-02-13T12:42:56.627Z,9.64
2017-02-13T12:45:34.019Z,9.69
2017-02-13T12:46:48.894Z,9.81
2017-02-13T12:48:18.811Z,9.87
2017-02-13T12:49:32.517Z,9.93
2017-02-13T12:50:47.361Z,9.99
2017-02-13T12:52:00.995Z,10.06
2017-02-13T12:53:15.261Z,10.11
2017-02-13T12:54:29.027Z,10.15
2017-02-13T12:55:44.142Z,10.19
2017-02-13T12:56:58.122Z,10.21
2017-02-13T12:58:12.215Z,10.22
2017-02-13T12:59:26.314Z,10.23
2017-02-13T13:00:40.357Z,10.22
2017-02-13T13:01:55.674Z,10.21
2017-02-13T13:03:09.499Z,10.18
2017-02-13T13:04:23.295Z,10.17
2017-02-13T13:05:39.548Z,10.19
2017-02-13T13:06:53.017Z,10.21
2017-02-13T13:08:07.384Z,10.25
2017-02-13T13:09:21.848Z,10.28
2017-02-13T13:10:36.277Z,10.31
2017-02-13T13:11:49.775Z,10.32
2017-02-13T13:13:03.794Z,10.27
2017-02-13T13:14:18.195Z,10.26
2017-02-13T13:15:31.926Z,10.23
2017-02-13T13:16:48.057Z,10.23
2017-02-13T13:18:01.681Z,10.23
2017-02-13T13:19:15.799Z,10.28
2017-02-13T13:20:29.651Z,10.35
2017-02-13T13:21:43.955Z,10.42
2017-02-13T13:22:58.117Z,10.47
2017-02-13T13:24:12.035Z,10.51
2017-02-13T13:25:27.010Z,10.55
2017-02-13T13:26:41.042Z,10.59
2017-02-13T13:27:55.952Z,10.62
2017-02-13T13:29:09.731Z,10.64
2017-02-13T13:30:23.652Z,10.64
2017-02-13T13:31:37.859Z,10.66
2017-02-13T13:32:51.792Z,10.71
2017-02-13T13:34:05.739Z,10.76
2017-02-13T13:35:19.725Z,10.78
2017-02-13T13:36:33.755Z,10.8
2017-02-13T13:37:48.008Z,10.79
2017-02-13T13:39:02.859Z,10.77
2017-02-13T13:40:16.778Z,10.79
2017-02-13T13:41:30.469Z,10.83
2017-02-13T13:42:44.396Z,10.87
2017-02-13T13:43:58.882Z,10.87
2017-02-13T13:45:12.803Z,10.87
2017-02-13T13:46:26.822Z,10.87
2017-02-13T13:47:40.397Z,10.88
2017-02-13T13:48:54.572Z,10.9
2017-02-13T13:50:08.097Z,10.91
2017-02-13T13:51:22.065Z,10.91
2017-02-13T13:52:36.022Z,10.93
2017-02-13T13:53:49.731Z,10.96
2017-02-13T13:55:03.416Z,10.95
2017-02-13T13:56:17.475Z,10.95
2017-02-13T13:57:31.375Z,10.95
2017-02-13T13:58:45.137Z,10.99
2017-02-13T13:59:59.423Z,11.02
2017-02-13T14:01:13.245Z,11.06
2017-02-13T14:02:26.966Z,11.07
2017-02-13T14:03:40.907Z,11.12
2017-02-13T14:04:54.702Z,11.11
2017-02-13T14:06:09.108Z,11.11
2017-02-13T14:07:22.924Z,11.11
2017-02-13T14:08:36.860Z,11.14
2017-02-13T14:09:51.378Z,11.15
2017-02-13T14:11:05.225Z,11.15
2017-02-13T14:12:19.075Z,11.1
2017-02-13T14:13:32.887Z,11.07
2017-02-13T14:14:46.625Z,11.07
2017-02-13T14:16:01.782Z,11.07
2017-02-13T14:17:15.404Z,11.08
2017-02-13T14:18:29.226Z,11.13
2017-02-13T14:19:43.515Z,11.15
2017-02-13T14:20:57.295Z,11.19
2017-02-13T14:22:13.753Z,11.25
2017-02-13T14:23:27.520Z,11.31
2017-02-13T14:24:41.389Z,11.4
2017-02-13T14:25:55.259Z,11.41
2017-02-13T14:27:08.942Z,11.41
2017-02-13T14:28:23.214Z,11.4
2017-02-13T14:29:37.344Z,11.4
2017-02-13T14:30:51.012Z,11.4
2017-02-13T14:32:05.029Z,11.4
2017-02-13T14:33:19.416Z,11.4
2017-02-13T14:34:33.717Z,11.4
2017-02-13T14:35:47.334Z,11.41
2017-02-13T14:37:01.105Z,11.43
2017-02-13T14:38:14.775Z,11.43
2017-02-13T14:39:29.123Z,11.44
2017-02-13T14:40:43.336Z,11.43
2017-02-13T14:41:57.662Z,11.43
2017-02-13T14:43:11.396Z,11.44
2017-02-13T14:44:34.982Z,11.47
2017-02-13T14:45:48.765Z,11.49
2017-02-13T14:47:03.068Z,11.53
2017-02-13T14:48:17.705Z,11.57
2017-02-13T14:49:31.382Z,11.58
2017-02-13T14:50:45.196Z,11.6
2017-02-13T14:51:59.389Z,11.57
2017-02-13T14:53:13.438Z,11.53
2017-02-13T14:54:27.471Z,11.52
2017-02-13T14:55:41.650Z,11.5
2017-02-13T14:56:55.790Z,11.48
2017-02-13T14:58:10.413Z,11.46
2017-02-13T14:59:24.411Z,11.46
2017-02-13T15:00:38.159Z,11.47
2017-02-13T15:01:51.806Z,11.47
2017-02-13T15:03:05.673Z,11.49
2017-02-13T15:04:19.450Z,11.52
2017-02-13T15:05:33.863Z,11.54
2017-02-13T15:07:02.575Z,11.55
2017-02-13T15:08:16.682Z,11.53
2017-02-13T15:09:30.570Z,11.53
2017-02-13T15:10:44.474Z,11.54
2017-02-13T15:11:58.505Z,11.55
2017-02-13T15:13:12.451Z,11.54
2017-02-13T15:14:45.598Z,11.54
2017-02-13T15:15:59.505Z,11.56
2017-02-13T15:17:13.542Z,11.59
2017-02-13T15:18:27.349Z,11.61
2017-02-13T15:19:41.338Z,11.64
2017-02-13T15:20:55.219Z,11.65
2017-02-13T15:22:09.412Z,11.68
2017-02-13T15:23:23.851Z,11.7
2017-02-13T15:24:37.775Z,11.71
2017-02-13T15:25:52.022Z,11.67
2017-02-13T15:27:05.811Z,11.67
2017-02-13T15:28:20.253Z,11.67
2017-02-13T15:29:33.936Z,11.65
2017-02-13T15:30:48.017Z,11.6
2017-02-13T15:32:01.668Z,11.57
2017-02-13T15:33:16.095Z,11.53
2017-02-13T15:34:30.131Z,11.54
2017-02-13T15:35:43.898Z,11.56
2017-02-13T15:36:58.220Z,11.55
2017-02-13T15:38:12.090Z,11.54
2017-02-13T15:39:28.226Z,11.54
2017-02-13T15:40:42.082Z,11.58
2017-02-13T15:41:56.019Z,11.58
2017-02-13T15:43:09.954Z,11.58
2017-02-13T15:44:24.841Z,11.55
2017-02-13T15:45:39.327Z,11.49
2017-02-13T15:46:53.916Z,11.43
2017-02-13T15:48:07.694Z,11.43
2017-02-13T15:49:22.471Z,11.4
2017-02-13T15:50:36.765Z,11.36
2017-02-13T15:51:50.823Z,11.33
2017-02-13T15:53:05.109Z,11.3
2017-02-13T15:54:19.642Z,11.27
2017-02-13T15:55:34.297Z,11.23
2017-02-13T15:56:48.613Z,11.22
2017-02-13T15:58:02.169Z,11.22
2017-02-13T15:59:16.769Z,11.23
2017-02-13T16:00:30.618Z,11.23
2017-02-13T16:01:44.719Z,11.23
2017-02-13T16:02:58.229Z,11.24
2017-02-13T16:04:12.180Z,11.23
2017-02-13T16:05:26.068Z,11.19
2017-02-13T16:06:40.392Z,11.17
2017-02-13T16:07:54.598Z,11.16
2017-02-13T16:09:08.602Z,11.16
2017-02-13T16:10:23.919Z,11.16
2017-02-13T16:11:37.870Z,11.16
2017-02-13T16:12:51.572Z,11.13
2017-02-13T16:14:05.803Z,11.09
2017-02-13T16:15:19.459Z,11.07
2017-02-13T16:16:33.479Z,11.05
2017-02-13T16:17:47.440Z,11.01
2017-02-13T16:19:01.665Z,11
2017-02-13T16:20:15.703Z,10.98
2017-02-13T16:21:44.534Z,10.95
2017-02-13T16:22:58.070Z,10.93
2017-02-13T16:24:12.780Z,10.91
2017-02-13T16:25:26.485Z,10.9
2017-02-13T16:26:40.423Z,10.85
2017-02-13T16:27:54.080Z,10.83
2017-02-13T16:29:07.932Z,10.78
2017-02-13T16:30:22.631Z,10.78
2017-02-13T16:31:36.711Z,10.74
2017-02-13T16:32:50.518Z,10.68
2017-02-13T16:34:04.288Z,10.64